sensor_id;sensor_type;location;lat;lon;timestamp;pressure;altitude;pressure_sealevel;temperature;humidity
73860;BME280;62197;51.632;13.700;2023-04-25T00:01:58;99372.81;;;5.59;100.00
73860;BME280;62197;51.632;13.700;2023-04-25T00:04:25;99371.75;;;5.60;100.00
73860;BME280;62197;51.632;13.700;2023-04-25T00:06:50;99376.03;;;5.67;100.00
73860;BME280;62197;51.632;13.700;2023-04-25T00:09:17;99370.19;;;5.64;100.00
73860;BME280;62197;51.632;13.700;2023-04-25T00:11:42;99380.22;;;5.70;100.00
73860;BME280;62197;51.632;13.700;2023-04-25T00:14:07;99374.13;;;5.68;100.00
73860;BME280;62197;51.632;13.700;2023-04-25T00:16:33;99373.53;;;5.66;100.00
73860;BME280;62197;51.632;13.700;2023-04-25T00:19:00;99373.53;;;5.66;100.00
73860;BME280;62197;51.632;13.700;2023-04-25T00:21:26;99374.88;;;5.63;100.00
73860;BME280;62197;51.632;13.700;2023-04-25T00:23:53;99371.53;;;5.61;100.00
73860;BME280;62197;51.632;13.700;2023-04-25T00:26:18;99371.88;;;5.65;100.00
73860;BME280;62197;51.632;13.700;2023-04-25T00:28:44;99374.03;;;5.63;100.00
73860;BME280;62197;51.632;13.700;2023-04-25T00:31:09;99376.16;;;5.61;100.00
73860;BME280;62197;51.632;13.700;2023-04-25T00:33:34;99377.94;;;5.55;100.00
73860;BME280;62197;51.632;13.700;2023-04-25T00:36:00;99373.16;;;5.50;100.00
73860;BME280;62197;51.632;13.700;2023-04-25T00:38:25;99371.03;;;5.53;100.00
73860;BME280;62197;51.632;13.700;2023-04-25T00:40:50;99375.81;;;5.57;100.00
73860;BME280;62197;51.632;13.700;2023-04-25T00:43:16;99367.69;;;5.50;100.00
73860;BME280;62197;51.632;13.700;2023-04-25T00:45:41;99374.25;;;5.49;100.00
73860;BME280;62197;51.632;13.700;2023-04-25T00:48:08;99364.03;;;5.57;100.00
73860;BME280;62197;51.632;13.700;2023-04-25T00:50:33;99357.94;;;5.55;100.00
73860;BME280;62197;51.632;13.700;2023-04-25T00:53:00;99369.59;;;5.50;100.00
73860;BME280;62197;51.632;13.700;2023-04-25T00:55:26;99366.03;;;5.49;100.00
73860;BME280;62197;51.632;13.700;2023-04-25T00:57:51;99366.50;;;5.46;100.00
73860;BME280;62197;51.632;13.700;2023-04-25T01:00:17;99365.53;;;5.41;100.00
73860;BME280;62197;51.632;13.700;2023-04-25T01:02:44;99366.84;;;5.38;100.00
73860;BME280;62197;51.632;13.700;2023-04-25T01:05:10;99362.44;;;5.37;100.00
73860;BME280;62197;51.632;13.700;2023-04-25T01:07:37;99363.41;;;5.43;100.00
73860;BME280;62197;51.632;13.700;2023-04-25T01:10:02;99367.09;;;5.48;100.00
73860;BME280;62197;51.632;13.700;2023-04-25T01:12:28;99363.91;;;5.52;100.00
73860;BME280;62197;51.632;13.700;2023-04-25T01:14:53;99363.69;;;5.65;100.00
73860;BME280;62197;51.632;13.700;2023-04-25T01:17:19;99347.38;;;5.70;100.00
73860;BME280;62197;51.632;13.700;2023-04-25T01:19:44;99369.25;;;5.70;100.00
73860;BME280;62197;51.632;13.700;2023-04-25T01:22:12;99365.31;;;5.66;100.00
73860;BME280;62197;51.632;13.700;2023-04-25T01:24:39;99350.69;;;5.60;100.00
73860;BME280;62197;51.632;13.700;2023-04-25T01:27:04;99359.59;;;5.67;100.00
73860;BME280;62197;51.632;13.700;2023-04-25T01:29:30;99357.13;;;5.66;100.00
73860;BME280;62197;51.632;13.700;2023-04-25T01:31:56;99355.81;;;5.57;100.00
73860;BME280;62197;51.632;13.700;2023-04-25T01:34:23;99335.69;;;5.39;100.00
73860;BME280;62197;51.632;13.700;2023-04-25T01:36:50;99351.16;;;5.45;100.00
73860;BME280;62197;51.632;13.700;2023-04-25T01:39:16;99351.63;;;5.42;100.00
73860;BME280;62197;51.632;13.700;2023-04-25T01:41:42;99345.31;;;5.42;100.00
73860;BME280;62197;51.632;13.700;2023-04-25T01:44:07;99351.16;;;5.45;100.00
73860;BME280;62197;51.632;13.700;2023-04-25T01:46:33;99354.59;;;5.41;100.00
73860;BME280;62197;51.632;13.700;2023-04-25T01:48:58;99350.06;;;5.46;100.00
73860;BME280;62197;51.632;13.700;2023-04-25T01:51:24;99350.78;;;5.42;100.00
73860;BME280;62197;51.632;13.700;2023-04-25T01:53:49;99351.63;;;5.42;100.00
73860;BME280;62197;51.632;13.700;2023-04-25T01:56:14;99354.69;;;5.34;100.00
73860;BME280;62197;51.632;13.700;2023-04-25T01:58:40;99352.69;;;5.30;100.00
73860;BME280;62197;51.632;13.700;2023-04-25T02:01:05;99352.31;;;5.26;100.00
73860;BME280;62197;51.632;13.700;2023-04-25T02:03:31;99353.38;;;5.25;100.00
73860;BME280;62197;51.632;13.700;2023-04-25T02:05:57;99361.94;;;5.29;100.00
73860;BME280;62197;51.632;13.700;2023-04-25T02:08:22;99363.50;;;5.36;100.00
73860;BME280;62197;51.632;13.700;2023-04-25T02:10:47;99364.47;;;5.42;100.00
73860;BME280;62197;51.632;13.700;2023-04-25T02:13:12;99366.47;;;5.35;100.00
73860;BME280;62197;51.632;13.700;2023-04-25T02:15:37;99361.09;;;5.28;100.00
73860;BME280;62197;51.632;13.700;2023-04-25T02:18:03;99362.50;;;5.19;100.00
73860;BME280;62197;51.632;13.700;2023-04-25T02:20:29;99350.81;;;5.01;100.00
73860;BME280;62197;51.632;13.700;2023-04-25T02:22:55;99357.44;;;4.93;100.00
73860;BME280;62197;51.632;13.700;2023-04-25T02:25:20;99355.47;;;4.82;100.00
73860;BME280;62197;51.632;13.700;2023-04-25T02:27:47;99364.41;;;4.78;100.00
73860;BME280;62197;51.632;13.700;2023-04-25T02:30:12;99355.22;;;4.72;100.00
73860;BME280;62197;51.632;13.700;2023-04-25T02:32:38;99356.88;;;4.73;100.00
73860;BME280;62197;51.632;13.700;2023-04-25T02:35:04;99356.50;;;4.70;100.00
73860;BME280;62197;51.632;13.700;2023-04-25T02:37:31;99361.44;;;4.61;100.00
73860;BME280;62197;51.632;13.700;2023-04-25T02:39:56;99363.31;;;4.49;100.00
73860;BME280;62197;51.632;13.700;2023-04-25T02:42:21;99354.28;;;4.48;100.00
73860;BME280;62197;51.632;13.700;2023-04-25T02:44:47;99357.13;;;4.53;100.00
73860;BME280;62197;51.632;13.700;2023-04-25T02:47:12;99346.97;;;4.61;100.00
73860;BME280;62197;51.632;13.700;2023-04-25T02:49:37;99351.13;;;4.63;100.00
73860;BME280;62197;51.632;13.700;2023-04-25T02:52:03;99365.31;;;4.72;100.00
73860;BME280;62197;51.632;13.700;2023-04-25T02:54:28;99353.53;;;4.71;100.00
73860;BME280;62197;51.632;13.700;2023-04-25T02:56:53;99348.91;;;4.72;100.00
73860;BME280;62197;51.632;13.700;2023-04-25T02:59:19;99350.22;;;4.69;100.00
73860;BME280;62197;51.632;13.700;2023-04-25T03:01:45;99345.22;;;4.66;100.00
73860;BME280;62197;51.632;13.700;2023-04-25T03:04:10;99333.06;;;4.62;100.00
73860;BME280;62197;51.632;13.700;2023-04-25T03:06:35;99338.06;;;4.65;100.00
73860;BME280;62197;51.632;13.700;2023-04-25T03:09:01;99345.81;;;4.68;100.00
73860;BME280;62197;51.632;13.700;2023-04-25T03:11:26;99345.78;;;4.56;100.00
73860;BME280;62197;51.632;13.700;2023-04-25T03:13:51;99355.00;;;4.55;100.00
73860;BME280;62197;51.632;13.700;2023-04-25T03:16:17;99338.13;;;4.47;100.00
73860;BME280;62197;51.632;13.700;2023-04-25T03:18:42;99331.28;;;4.38;100.00
73860;BME280;62197;51.632;13.700;2023-04-25T03:21:07;99331.22;;;4.26;100.00
73860;BME280;62197;51.632;13.700;2023-04-25T03:23:33;99332.84;;;4.16;100.00
73860;BME280;62197;51.632;13.700;2023-04-25T03:25:58;99339.34;;;4.15;100.00
73860;BME280;62197;51.632;13.700;2023-04-25T03:28:24;99336.22;;;4.11;100.00
73860;BME280;62197;51.632;13.700;2023-04-25T03:30:49;99331.84;;;4.10;100.00
73860;BME280;62197;51.632;13.700;2023-04-25T03:33:14;99338.41;;;4.03;100.00
73860;BME280;62197;51.632;13.700;2023-04-25T03:35:40;99336.16;;;4.00;100.00
73860;BME280;62197;51.632;13.700;2023-04-25T03:38:05;99334.78;;;3.91;100.00
73860;BME280;62197;51.632;13.700;2023-04-25T03:40:30;99336.13;;;3.82;100.00
73860;BME280;62197;51.632;13.700;2023-04-25T03:42:56;99340.84;;;3.75;100.00
73860;BME280;62197;51.632;13.700;2023-04-25T03:45:21;99322.53;;;3.57;100.00
73860;BME280;62197;51.632;13.700;2023-04-25T03:47:46;99346.56;;;3.66;100.00
73860;BME280;62197;51.632;13.700;2023-04-25T03:50:12;99335.88;;;3.65;100.00
73860;BME280;62197;51.632;13.700;2023-04-25T03:52:37;99340.06;;;3.67;100.00
73860;BME280;62197;51.632;13.700;2023-04-25T03:55:03;99347.66;;;3.65;100.00
73860;BME280;62197;51.632;13.700;2023-04-25T03:57:29;99336.78;;;3.59;100.00
73860;BME280;62197;51.632;13.700;2023-04-25T03:59:55;99342.69;;;3.56;100.00
73860;BME280;62197;51.632;13.700;2023-04-25T04:02:20;99343.50;;;3.56;100.00
73860;BME280;62197;51.632;13.700;2023-04-25T04:04:45;99344.50;;;3.87;100.00
73860;BME280;62197;51.632;13.700;2023-04-25T04:07:11;99340.78;;;3.81;100.00
73860;BME280;62197;51.632;13.700;2023-04-25T04:09:36;99348.25;;;3.86;100.00
73860;BME280;62197;51.632;13.700;2023-04-25T04:12:01;99357.97;;;3.82;100.00
73860;BME280;62197;51.632;13.700;2023-04-25T04:14:28;99345.91;;;3.89;100.00
73860;BME280;62197;51.632;13.700;2023-04-25T04:16:53;99352.38;;;3.95;100.00
73860;BME280;62197;51.632;13.700;2023-04-25T04:19:18;99347.91;;;4.00;100.00
73860;BME280;62197;51.632;13.700;2023-04-25T04:21:43;99356.84;;;4.07;100.00
73860;BME280;62197;51.632;13.700;2023-04-25T04:24:09;99354.66;;;4.16;100.00
73860;BME280;62197;51.632;13.700;2023-04-25T04:26:35;99351.41;;;4.25;100.00
73860;BME280;62197;51.632;13.700;2023-04-25T04:29:00;99349.72;;;4.24;100.00
73860;BME280;62197;51.632;13.700;2023-04-25T04:31:26;99349.78;;;4.36;100.00
73860;BME280;62197;51.632;13.700;2023-04-25T04:33:51;99358.53;;;4.44;100.00
73860;BME280;62197;51.632;13.700;2023-04-25T04:36:17;99357.38;;;4.52;100.00
73860;BME280;62197;51.632;13.700;2023-04-25T04:38:45;99361.00;;;4.64;100.00
73860;BME280;62197;51.632;13.700;2023-04-25T04:41:10;99354.03;;;4.68;100.00
73860;BME280;62197;51.632;13.700;2023-04-25T04:43:36;99347.63;;;4.74;100.00
73860;BME280;62197;51.632;13.700;2023-04-25T04:46:02;99351.22;;;4.86;100.00
73860;BME280;62197;51.632;13.700;2023-04-25T04:48:28;99354.13;;;4.91;100.00
73860;BME280;62197;51.632;13.700;2023-04-25T04:50:53;99356.72;;;4.98;100.00
73860;BME280;62197;51.632;13.700;2023-04-25T04:53:19;99353.06;;;5.04;100.00
73860;BME280;62197;51.632;13.700;2023-04-25T04:55:44;99360.50;;;5.15;100.00
73860;BME280;62197;51.632;13.700;2023-04-25T04:58:09;99360.38;;;5.21;100.00
73860;BME280;62197;51.632;13.700;2023-04-25T05:00:35;99361.25;;;5.33;100.00
73860;BME280;62197;51.632;13.700;2023-04-25T05:03:00;99362.72;;;5.47;100.00
73860;BME280;62197;51.632;13.700;2023-04-25T05:05:26;99360.19;;;5.58;100.00
73860;BME280;62197;51.632;13.700;2023-04-25T05:07:51;99367.59;;;5.69;100.00
73860;BME280;62197;51.632;13.700;2023-04-25T05:10:19;99363.19;;;5.79;100.00
73860;BME280;62197;51.632;13.700;2023-04-25T05:12:45;99373.13;;;5.92;100.00
73860;BME280;62197;51.632;13.700;2023-04-25T05:15:11;99385.38;;;6.01;100.00
73860;BME280;62197;51.632;13.700;2023-04-25T05:17:36;99382.19;;;6.04;100.00
73860;BME280;62197;51.632;13.700;2023-04-25T05:20:02;99377.41;;;6.11;100.00
73860;BME280;62197;51.632;13.700;2023-04-25T05:22:27;99382.88;;;6.22;100.00
73860;BME280;62197;51.632;13.700;2023-04-25T05:24:53;99373.19;;;6.43;100.00
73860;BME280;62197;51.632;13.700;2023-04-25T05:27:18;99376.25;;;6.47;100.00
73860;BME280;62197;51.632;13.700;2023-04-25T05:29:44;99370.06;;;6.51;100.00
73860;BME280;62197;51.632;13.700;2023-04-25T05:32:09;99379.78;;;6.70;100.00
73860;BME280;62197;51.632;13.700;2023-04-25T05:34:35;99377.19;;;6.64;100.00
73860;BME280;62197;51.632;13.700;2023-04-25T05:37:00;99384.31;;;6.76;99.89
73860;BME280;62197;51.632;13.700;2023-04-25T05:39:26;99386.41;;;6.86;99.68
73860;BME280;62197;51.632;13.700;2023-04-25T05:41:51;99381.44;;;6.83;98.58
73860;BME280;62197;51.632;13.700;2023-04-25T05:44:16;99377.59;;;6.84;97.95
73860;BME280;62197;51.632;13.700;2023-04-25T05:46:42;99390.88;;;7.03;98.05
73860;BME280;62197;51.632;13.700;2023-04-25T05:49:07;99384.03;;;7.17;97.00
73860;BME280;62197;51.632;13.700;2023-04-25T05:51:32;99393.91;;;7.18;95.69
73860;BME280;62197;51.632;13.700;2023-04-25T05:53:58;99394.03;;;7.23;94.47
73860;BME280;62197;51.632;13.700;2023-04-25T05:56:23;99396.53;;;7.42;93.43
73860;BME280;62197;51.632;13.700;2023-04-25T05:58:48;99391.22;;;7.52;92.49
73860;BME280;62197;51.632;13.700;2023-04-25T06:01:13;99398.06;;;7.66;90.92
73860;BME280;62197;51.632;13.700;2023-04-25T06:03:39;99383.94;;;7.74;89.20
73860;BME280;62197;51.632;13.700;2023-04-25T06:06:07;99388.25;;;7.86;89.59
73860;BME280;62197;51.632;13.700;2023-04-25T06:08:33;99383.81;;;8.02;87.50
73860;BME280;62197;51.632;13.700;2023-04-25T06:10:58;99390.91;;;7.81;86.69
73860;BME280;62197;51.632;13.700;2023-04-25T06:13:23;99403.22;;;7.79;88.54
73860;BME280;62197;51.632;13.700;2023-04-25T06:15:48;99392.00;;;7.80;87.02
73860;BME280;62197;51.632;13.700;2023-04-25T06:18:14;99402.91;;;8.08;86.80
73860;BME280;62197;51.632;13.700;2023-04-25T06:20:39;99395.03;;;8.17;84.64
73860;BME280;62197;51.632;13.700;2023-04-25T06:23:04;99402.81;;;8.58;95.17
73860;BME280;62197;51.632;13.700;2023-04-25T06:25:30;99399.78;;;8.76;82.41
73860;BME280;62197;51.632;13.700;2023-04-25T06:27:55;99400.84;;;10.09;77.76
73860;BME280;62197;51.632;13.700;2023-04-25T06:30:20;99395.41;;;10.14;77.65
73860;BME280;62197;51.632;13.700;2023-04-25T06:32:49;99391.13;;;10.38;72.47
73860;BME280;62197;51.632;13.700;2023-04-25T06:35:15;99395.31;;;9.45;77.01
73860;BME280;62197;51.632;13.700;2023-04-25T06:37:40;99390.09;;;9.17;78.81
73860;BME280;62197;51.632;13.700;2023-04-25T06:40:06;99396.06;;;8.87;81.04
73860;BME280;62197;51.632;13.700;2023-04-25T06:42:31;99391.00;;;8.79;81.83
73860;BME280;62197;51.632;13.700;2023-04-25T06:44:56;99398.03;;;8.92;82.45
73860;BME280;62197;51.632;13.700;2023-04-25T06:47:22;99396.31;;;8.64;82.44
73860;BME280;62197;51.632;13.700;2023-04-25T06:49:47;99399.44;;;8.94;82.39
73860;BME280;62197;51.632;13.700;2023-04-25T06:52:12;99389.25;;;8.95;81.86
73860;BME280;62197;51.632;13.700;2023-04-25T06:54:37;99395.66;;;9.27;80.77
73860;BME280;62197;51.632;13.700;2023-04-25T06:57:03;99394.44;;;9.13;80.37
73860;BME280;62197;51.632;13.700;2023-04-25T06:59:28;99395.16;;;9.03;80.90
73860;BME280;62197;51.632;13.700;2023-04-25T07:01:53;99396.31;;;9.07;80.18
73860;BME280;62197;51.632;13.700;2023-04-25T07:04:18;99400.13;;;9.06;80.45
73860;BME280;62197;51.632;13.700;2023-04-25T07:06:44;99400.13;;;9.06;80.20
73860;BME280;62197;51.632;13.700;2023-04-25T07:09:12;99394.31;;;8.81;82.37
73860;BME280;62197;51.632;13.700;2023-04-25T07:11:37;99412.56;;;8.87;81.68
73860;BME280;62197;51.632;13.700;2023-04-25T07:14:03;99413.09;;;9.33;80.68
73860;BME280;62197;51.632;13.700;2023-04-25T07:16:29;99403.16;;;9.32;79.72
73860;BME280;62197;51.632;13.700;2023-04-25T07:18:54;99409.41;;;9.49;79.22
73860;BME280;62197;51.632;13.700;2023-04-25T07:21:19;99410.03;;;9.56;78.94
73860;BME280;62197;51.632;13.700;2023-04-25T07:23:45;99398.31;;;9.39;78.10
73860;BME280;62197;51.632;13.700;2023-04-25T07:26:10;99406.19;;;9.57;79.19
73860;BME280;62197;51.632;13.700;2023-04-25T07:28:35;99413.19;;;10.01;77.18
73860;BME280;62197;51.632;13.700;2023-04-25T07:31:00;99415.00;;;10.17;76.38
73860;BME280;62197;51.632;13.700;2023-04-25T07:33:26;99420.81;;;9.89;78.92
73860;BME280;62197;51.632;13.700;2023-04-25T07:35:52;99419.97;;;9.88;76.56
73860;BME280;62197;51.632;13.700;2023-04-25T07:38:17;99420.28;;;9.92;77.33
73860;BME280;62197;51.632;13.700;2023-04-25T07:40:42;99426.06;;;9.90;76.58
73860;BME280;62197;51.632;13.700;2023-04-25T07:43:08;99429.16;;;10.31;75.65
73860;BME280;62197;51.632;13.700;2023-04-25T07:45:33;99428.03;;;10.27;75.87
73860;BME280;62197;51.632;13.700;2023-04-25T07:47:58;99434.56;;;10.57;75.26
73860;BME280;62197;51.632;13.700;2023-04-25T07:50:23;99432.28;;;10.91;73.95
73860;BME280;62197;51.632;13.700;2023-04-25T07:52:49;99432.31;;;10.96;72.99
73860;BME280;62197;51.632;13.700;2023-04-25T07:55:14;99430.84;;;10.78;74.21
73860;BME280;62197;51.632;13.700;2023-04-25T07:57:40;99428.97;;;10.42;73.87
73860;BME280;62197;51.632;13.700;2023-04-25T08:00:05;99446.56;;;10.31;76.11
73860;BME280;62197;51.632;13.700;2023-04-25T08:02:34;99441.88;;;10.78;72.68
73860;BME280;62197;51.632;13.700;2023-04-25T08:04:59;99437.34;;;9.89;75.57
73860;BME280;62197;51.632;13.700;2023-04-25T08:07:25;99430.13;;;9.83;78.72
73860;BME280;62197;51.632;13.700;2023-04-25T08:09:50;99436.09;;;10.38;77.50
73860;BME280;62197;51.632;13.700;2023-04-25T08:12:15;99442.53;;;10.49;76.54
73860;BME280;62197;51.632;13.700;2023-04-25T08:14:40;99448.44;;;10.26;75.96
73860;BME280;62197;51.632;13.700;2023-04-25T08:17:06;99454.28;;;9.76;79.12
73860;BME280;62197;51.632;13.700;2023-04-25T08:19:31;99456.81;;;10.09;78.31
73860;BME280;62197;51.632;13.700;2023-04-25T08:21:56;99459.13;;;10.22;77.05
73860;BME280;62197;51.632;13.700;2023-04-25T08:24:22;99450.13;;;10.00;77.87
73860;BME280;62197;51.632;13.700;2023-04-25T08:26:48;99465.84;;;9.73;79.43
73860;BME280;62197;51.632;13.700;2023-04-25T08:29:13;99460.22;;;10.16;79.14
73860;BME280;62197;51.632;13.700;2023-04-25T08:31:38;99461.59;;;9.87;80.36
73860;BME280;62197;51.632;13.700;2023-04-25T08:34:04;99461.88;;;9.90;78.23
73860;BME280;62197;51.632;13.700;2023-04-25T08:36:29;99466.34;;;10.23;77.31
73860;BME280;62197;51.632;13.700;2023-04-25T08:38:58;99466.47;;;10.43;78.46
73860;BME280;62197;51.632;13.700;2023-04-25T08:41:24;99465.19;;;10.19;78.31
73860;BME280;62197;51.632;13.700;2023-04-25T08:43:51;99469.69;;;9.72;80.54
73860;BME280;62197;51.632;13.700;2023-04-25T08:46:18;99478.19;;;9.97;80.73
73860;BME280;62197;51.632;13.700;2023-04-25T08:48:45;99474.47;;;9.33;81.30
73860;BME280;62197;51.632;13.700;2023-04-25T08:51:16;99480.34;;;9.15;82.36
73860;BME280;62197;51.632;13.700;2023-04-25T08:53:49;99480.91;;;9.39;83.04
73860;BME280;62197;51.632;13.700;2023-04-25T08:56:17;99484.69;;;9.33;82.31
73860;BME280;62197;51.632;13.700;2023-04-25T08:58:47;99486.22;;;9.24;82.59
73860;BME280;62197;51.632;13.700;2023-04-25T09:01:13;99486.91;;;9.36;82.05
73860;BME280;62197;51.632;13.700;2023-04-25T09:03:38;99480.69;;;9.45;83.00
73860;BME280;62197;51.632;13.700;2023-04-25T09:06:03;99502.22;;;9.75;81.90
73860;BME280;62197;51.632;13.700;2023-04-25T09:08:29;99499.59;;;9.37;82.83
73860;BME280;62197;51.632;13.700;2023-04-25T09:10:55;99506.38;;;9.29;84.15
73860;BME280;62197;51.632;13.700;2023-04-25T09:13:24;99509.63;;;9.04;85.74
73860;BME280;62197;51.632;13.700;2023-04-25T09:15:55;99512.13;;;8.84;85.50
73860;BME280;62197;51.632;13.700;2023-04-25T09:18:34;99528.28;;;8.81;86.45
73860;BME280;62197;51.632;13.700;2023-04-25T09:21:12;99517.38;;;8.86;86.20
73860;BME280;62197;51.632;13.700;2023-04-25T09:23:43;99524.56;;;9.30;84.64
73860;BME280;62197;51.632;13.700;2023-04-25T09:26:09;99512.13;;;9.28;83.60
73860;BME280;62197;51.632;13.700;2023-04-25T09:28:34;99528.41;;;9.29;83.22
73860;BME280;62197;51.632;13.700;2023-04-25T09:31:00;99533.31;;;9.49;81.93
73860;BME280;62197;51.632;13.700;2023-04-25T09:33:31;99528.56;;;9.66;79.99
73860;BME280;62197;51.632;13.700;2023-04-25T09:36:07;99530.06;;;10.00;78.29
73860;BME280;62197;51.632;13.700;2023-04-25T09:38:41;99518.94;;;10.48;76.47
73860;BME280;62197;51.632;13.700;2023-04-25T09:41:07;99528.56;;;10.82;75.05
73860;BME280;62197;51.632;13.700;2023-04-25T09:43:33;99533.50;;;10.80;75.55
73860;BME280;62197;51.632;13.700;2023-04-25T09:45:58;99533.69;;;10.32;77.50
73860;BME280;62197;51.632;13.700;2023-04-25T09:48:26;99530.72;;;10.39;77.74
73860;BME280;62197;51.632;13.700;2023-04-25T09:51:10;99542.03;;;10.37;77.98
73860;BME280;62197;51.632;13.700;2023-04-25T09:53:39;99533.22;;;10.40;76.65
73860;BME280;62197;51.632;13.700;2023-04-25T09:56:06;99538.31;;;10.27;77.10
73860;BME280;62197;51.632;13.700;2023-04-25T09:58:33;99534.59;;;10.11;78.77
73860;BME280;62197;51.632;13.700;2023-04-25T10:01:07;99544.84;;;10.16;78.17
73860;BME280;62197;51.632;13.700;2023-04-25T10:03:35;99537.31;;;9.84;80.42
73860;BME280;62197;51.632;13.700;2023-04-25T10:06:02;99552.47;;;9.60;83.38
73860;BME280;62197;51.632;13.700;2023-04-25T10:08:32;99544.34;;;9.27;85.44
73860;BME280;62197;51.632;13.700;2023-04-25T10:11:00;99543.28;;;8.90;88.60
73860;BME280;62197;51.632;13.700;2023-04-25T10:13:27;99553.94;;;9.03;89.13
73860;BME280;62197;51.632;13.700;2023-04-25T10:15:53;99548.09;;;8.99;88.19
73860;BME280;62197;51.632;13.700;2023-04-25T10:18:20;99557.72;;;9.19;88.33
73860;BME280;62197;51.632;13.700;2023-04-25T10:20:45;99571.88;;;9.27;87.55
73860;BME280;62197;51.632;13.700;2023-04-25T10:23:13;99571.78;;;9.00;88.90
73860;BME280;62197;51.632;13.700;2023-04-25T10:25:39;99570.81;;;8.90;85.74
73860;BME280;62197;51.632;13.700;2023-04-25T10:28:05;99564.78;;;8.93;83.51
73860;BME280;62197;51.632;13.700;2023-04-25T10:30:31;99576.81;;;9.47;82.60
73860;BME280;62197;51.632;13.700;2023-04-25T10:32:56;99581.50;;;9.46;80.69
73860;BME280;62197;51.632;13.700;2023-04-25T10:35:27;99575.91;;;9.63;78.78
73860;BME280;62197;51.632;13.700;2023-04-25T10:40:22;99576.81;;;9.47;77.70
73860;BME280;62197;51.632;13.700;2023-04-25T10:42:48;99585.91;;;9.69;76.02
73860;BME280;62197;51.632;13.700;2023-04-25T10:45:13;99585.06;;;9.68;75.69
73860;BME280;62197;51.632;13.700;2023-04-25T10:47:43;99580.84;;;9.61;75.68
73860;BME280;62197;51.632;13.700;2023-04-25T10:50:10;99593.22;;;10.07;73.74
73860;BME280;62197;51.632;13.700;2023-04-25T10:52:38;99581.59;;;10.26;73.26
73860;BME280;62197;51.632;13.700;2023-04-25T10:55:04;99575.47;;;10.19;72.85
73860;BME280;62197;51.632;13.700;2023-04-25T10:57:40;99573.03;;;10.01;73.90
73860;BME280;62197;51.632;13.700;2023-04-25T11:00:08;99586.88;;;10.28;70.50
73860;BME280;62197;51.632;13.700;2023-04-25T11:02:51;99582.34;;;10.17;71.24
73860;BME280;62197;51.632;13.700;2023-04-25T11:05:30;99582.56;;;10.10;71.46
73860;BME280;62197;51.632;13.700;2023-04-25T11:07:57;99588.78;;;10.00;71.43
73860;BME280;62197;51.632;13.700;2023-04-25T11:10:27;99579.72;;;10.05;72.19
73860;BME280;62197;51.632;13.700;2023-04-25T11:12:52;99594.34;;;9.84;70.31
73860;BME280;62197;51.632;13.700;2023-04-25T11:15:18;99592.19;;;9.86;71.81
73860;BME280;62197;51.632;13.700;2023-04-25T11:17:43;99594.88;;;9.81;72.31
73860;BME280;62197;51.632;13.700;2023-04-25T11:20:11;99592.28;;;9.69;71.38
73860;BME280;62197;51.632;13.700;2023-04-25T11:22:39;99594.22;;;9.74;71.13
73860;BME280;62197;51.632;13.700;2023-04-25T11:25:07;99602.69;;;10.11;68.10
73860;BME280;62197;51.632;13.700;2023-04-25T11:27:33;99599.53;;;10.24;68.31
73860;BME280;62197;51.632;13.700;2023-04-25T11:29:58;99597.53;;;10.19;67.91
73860;BME280;62197;51.632;13.700;2023-04-25T11:32:23;99597.22;;;10.16;67.58
73860;BME280;62197;51.632;13.700;2023-04-25T11:34:48;99593.84;;;9.87;67.57
73860;BME280;62197;51.632;13.700;2023-04-25T11:37:14;99613.34;;;9.59;67.80
73860;BME280;62197;51.632;13.700;2023-04-25T11:39:43;99609.75;;;10.07;67.05
73860;BME280;62197;51.632;13.700;2023-04-25T11:42:10;99608.97;;;10.06;67.70
73860;BME280;62197;51.632;13.700;2023-04-25T11:44:38;99616.47;;;9.89;66.25
73860;BME280;62197;51.632;13.700;2023-04-25T11:47:03;99623.53;;;10.28;65.55
73860;BME280;62197;51.632;13.700;2023-04-25T11:49:32;99614.16;;;10.56;63.77
73860;BME280;62197;51.632;13.700;2023-04-25T11:51:57;99620.75;;;11.65;62.33
73860;BME280;62197;51.632;13.700;2023-04-25T11:54:23;99597.25;;;11.62;58.15
73860;BME280;62197;51.632;13.700;2023-04-25T11:56:48;99607.09;;;11.02;58.34
73860;BME280;62197;51.632;13.700;2023-04-25T11:59:14;99601.41;;;11.18;58.37
73860;BME280;62197;51.632;13.700;2023-04-25T12:01:41;99609.44;;;11.25;59.02
73860;BME280;62197;51.632;13.700;2023-04-25T12:04:20;99619.34;;;10.79;61.42
73860;BME280;62197;51.632;13.700;2023-04-25T12:06:47;99600.94;;;10.58;60.70
73860;BME280;62197;51.632;13.700;2023-04-25T12:09:14;99616.75;;;10.67;62.22
73860;BME280;62197;51.632;13.700;2023-04-25T12:11:42;99616.50;;;11.06;58.76
73860;BME280;62197;51.632;13.700;2023-04-25T12:14:08;99626.44;;;10.70;60.70
73860;BME280;62197;51.632;13.700;2023-04-25T12:16:44;99614.69;;;10.84;59.54
73860;BME280;62197;51.632;13.700;2023-04-25T12:19:13;99622.03;;;11.06;61.54
73860;BME280;62197;51.632;13.700;2023-04-25T12:21:39;99623.22;;;11.15;60.13
73860;BME280;62197;51.632;13.700;2023-04-25T12:24:12;99616.66;;;11.26;57.60
73860;BME280;62197;51.632;13.700;2023-04-25T12:27:04;99622.81;;;11.38;58.20
73860;BME280;62197;51.632;13.700;2023-04-25T12:29:32;99624.28;;;11.09;59.27
73860;BME280;62197;51.632;13.700;2023-04-25T12:31:58;99622.44;;;11.24;58.08
73860;BME280;62197;51.632;13.700;2023-04-25T12:34:24;99619.72;;;11.29;57.29
73860;BME280;62197;51.632;13.700;2023-04-25T12:36:50;99622.38;;;11.61;56.26
73860;BME280;62197;51.632;13.700;2023-04-25T12:41:43;99633.03;;;11.37;58.18
73860;BME280;62197;51.632;13.700;2023-04-25T12:44:08;99627.78;;;10.67;60.16
73860;BME280;62197;51.632;13.700;2023-04-25T12:46:33;99626.09;;;10.61;61.99
73860;BME280;62197;51.632;13.700;2023-04-25T12:48:59;99632.53;;;10.45;62.04
73860;BME280;62197;51.632;13.700;2023-04-25T12:51:25;99639.66;;;10.15;60.68
73860;BME280;62197;51.632;13.700;2023-04-25T12:53:52;99641.66;;;9.97;62.06